Baltimore, Maryland
Traffic Map
Current Weather Conditions
Baltimore, Maryland
Broken Clouds Haze
Broken Clouds
55°
Feels Like: 55°
Wind Chill: 55° Ceiling: 11000
Heat Index: 55° Visibility: 6mi
Dew Point: 55° Wind: 3mph
Humidity: 100% Direction: 100° (E)
Pressure: 29.86in Gusts: 0mph
Raw Report DataKBWI 281154Z 10003KT 6SM BR SCT055TCU BKN110 BKN160 BKN250 13/13 A2986 RMK AO2 LTG DSNT NE RAB20E42 SLP110 TCU N-E AND NW VCSH N-E P0001 60002 70002 T01280128 10128 20111 53003
Traffic Incident Summary
Active as of:
Severity:
Category:
InformationThere was an issue retrieving the traffic information for this location. Please try a different location or try again shortly.
Advertisements
Track Severe Weather on mobile